sensor_id;sensor_type;location;lat;lon;timestamp;temperature;humidity
5705;DHT22;2877;48.238;11.160;2024-01-16T00:01:30;-2.50;99.90
5705;DHT22;2877;48.238;11.160;2024-01-16T00:03:56;-2.50;99.90
5705;DHT22;2877;48.238;11.160;2024-01-16T00:06:21;-2.60;99.90
5705;DHT22;2877;48.238;11.160;2024-01-16T00:08:47;-2.70;99.90
5705;DHT22;2877;48.238;11.160;2024-01-16T00:11:12;-2.70;99.90
5705;DHT22;2877;48.238;11.160;2024-01-16T00:13:38;-2.80;99.90
5705;DHT22;2877;48.238;11.160;2024-01-16T00:16:04;-2.90;99.90
5705;DHT22;2877;48.238;11.160;2024-01-16T00:18:30;-2.90;99.90
5705;DHT22;2877;48.238;11.160;2024-01-16T00:20:55;-3.10;99.90
5705;DHT22;2877;48.238;11.160;2024-01-16T00:23:21;-3.20;99.90
5705;DHT22;2877;48.238;11.160;2024-01-16T00:25:46;-3.30;99.90
5705;DHT22;2877;48.238;11.160;2024-01-16T00:28:12;-3.40;99.90
5705;DHT22;2877;48.238;11.160;2024-01-16T00:30:37;-3.50;99.90
5705;DHT22;2877;48.238;11.160;2024-01-16T00:33:03;-3.60;99.90
5705;DHT22;2877;48.238;11.160;2024-01-16T00:35:29;-3.70;99.90
5705;DHT22;2877;48.238;11.160;2024-01-16T00:37:54;-3.80;99.90
5705;DHT22;2877;48.238;11.160;2024-01-16T00:40:20;-3.80;99.90
5705;DHT22;2877;48.238;11.160;2024-01-16T00:42:45;-3.90;99.90
5705;DHT22;2877;48.238;11.160;2024-01-16T00:45:11;-3.90;99.90
5705;DHT22;2877;48.238;11.160;2024-01-16T00:47:36;-4.00;99.90
5705;DHT22;2877;48.238;11.160;2024-01-16T00:50:02;-4.00;99.90
5705;DHT22;2877;48.238;11.160;2024-01-16T00:52:28;-4.10;99.90
5705;DHT22;2877;48.238;11.160;2024-01-16T00:54:54;-4.10;99.90
5705;DHT22;2877;48.238;11.160;2024-01-16T00:57:19;-4.10;99.90
5705;DHT22;2877;48.238;11.160;2024-01-16T00:59:46;-4.20;99.90
5705;DHT22;2877;48.238;11.160;2024-01-16T01:02:12;-4.10;99.90
5705;DHT22;2877;48.238;11.160;2024-01-16T01:04:37;-4.20;99.90
5705;DHT22;2877;48.238;11.160;2024-01-16T01:07:03;-4.10;99.90
5705;DHT22;2877;48.238;11.160;2024-01-16T01:09:29;-4.10;99.90
5705;DHT22;2877;48.238;11.160;2024-01-16T01:11:55;-4.10;99.90
5705;DHT22;2877;48.238;11.160;2024-01-16T01:14:20;-4.10;99.90
5705;DHT22;2877;48.238;11.160;2024-01-16T01:16:46;-4.10;99.90
5705;DHT22;2877;48.238;11.160;2024-01-16T01:19:11;-4.10;99.90
5705;DHT22;2877;48.238;11.160;2024-01-16T01:21:38;-4.10;99.90
5705;DHT22;2877;48.238;11.160;2024-01-16T01:24:03;-4.20;99.90
5705;DHT22;2877;48.238;11.160;2024-01-16T01:26:29;-4.20;99.90
5705;DHT22;2877;48.238;11.160;2024-01-16T01:28:54;-4.30;99.90
5705;DHT22;2877;48.238;11.160;2024-01-16T01:31:20;-4.30;99.90
5705;DHT22;2877;48.238;11.160;2024-01-16T01:33:45;-4.30;99.90
5705;DHT22;2877;48.238;11.160;2024-01-16T01:36:11;-4.40;99.90
5705;DHT22;2877;48.238;11.160;2024-01-16T01:38:36;-4.40;99.90
5705;DHT22;2877;48.238;11.160;2024-01-16T01:41:02;-4.40;99.90
5705;DHT22;2877;48.238;11.160;2024-01-16T01:43:28;-4.50;99.90
5705;DHT22;2877;48.238;11.160;2024-01-16T01:46:13;-4.60;99.90
5705;DHT22;2877;48.238;11.160;2024-01-16T01:48:41;-4.70;99.90
5705;DHT22;2877;48.238;11.160;2024-01-16T01:51:08;-4.80;99.90
5705;DHT22;2877;48.238;11.160;2024-01-16T01:53:34;-4.80;99.90
5705;DHT22;2877;48.238;11.160;2024-01-16T01:56:03;-4.90;99.90
5705;DHT22;2877;48.238;11.160;2024-01-16T01:58:31;-5.00;99.90
5705;DHT22;2877;48.238;11.160;2024-01-16T02:00:57;-5.00;99.90
5705;DHT22;2877;48.238;11.160;2024-01-16T02:03:25;-5.10;99.90
5705;DHT22;2877;48.238;11.160;2024-01-16T02:05:52;-5.20;99.90
5705;DHT22;2877;48.238;11.160;2024-01-16T02:08:18;-5.30;99.90
5705;DHT22;2877;48.238;11.160;2024-01-16T02:10:45;-5.40;99.90
5705;DHT22;2877;48.238;11.160;2024-01-16T02:13:13;-5.50;99.90
5705;DHT22;2877;48.238;11.160;2024-01-16T02:15:38;-5.50;99.90
5705;DHT22;2877;48.238;11.160;2024-01-16T02:18:06;-5.40;99.90
5705;DHT22;2877;48.238;11.160;2024-01-16T02:20:32;-5.40;99.90
5705;DHT22;2877;48.238;11.160;2024-01-16T02:23:00;-5.50;99.90
5705;DHT22;2877;48.238;11.160;2024-01-16T02:25:29;-5.50;99.90
5705;DHT22;2877;48.238;11.160;2024-01-16T02:27:54;-5.60;99.90
5705;DHT22;2877;48.238;11.160;2024-01-16T02:30:20;-5.50;99.90
5705;DHT22;2877;48.238;11.160;2024-01-16T02:32:45;-5.60;99.90
5705;DHT22;2877;48.238;11.160;2024-01-16T02:35:11;-5.60;99.90
5705;DHT22;2877;48.238;11.160;2024-01-16T02:37:36;-5.60;99.90
5705;DHT22;2877;48.238;11.160;2024-01-16T02:40:03;-5.60;99.90
5705;DHT22;2877;48.238;11.160;2024-01-16T02:42:34;-5.50;99.90
5705;DHT22;2877;48.238;11.160;2024-01-16T02:44:59;-5.60;99.90
5705;DHT22;2877;48.238;11.160;2024-01-16T02:47:25;-5.50;99.90
5705;DHT22;2877;48.238;11.160;2024-01-16T02:49:50;-5.60;99.90
5705;DHT22;2877;48.238;11.160;2024-01-16T02:52:16;-5.60;99.90
5705;DHT22;2877;48.238;11.160;2024-01-16T02:54:41;-5.60;99.90
5705;DHT22;2877;48.238;11.160;2024-01-16T02:57:07;-5.70;99.90
5705;DHT22;2877;48.238;11.160;2024-01-16T02:59:32;-5.70;99.90
5705;DHT22;2877;48.238;11.160;2024-01-16T03:01:58;-5.70;99.90
5705;DHT22;2877;48.238;11.160;2024-01-16T03:04:24;-5.50;99.90
5705;DHT22;2877;48.238;11.160;2024-01-16T03:06:49;-5.40;99.90
5705;DHT22;2877;48.238;11.160;2024-01-16T03:09:15;-5.40;99.90
5705;DHT22;2877;48.238;11.160;2024-01-16T03:11:41;-5.30;99.90
5705;DHT22;2877;48.238;11.160;2024-01-16T03:14:06;-5.30;99.90
5705;DHT22;2877;48.238;11.160;2024-01-16T03:16:32;-5.20;99.90
5705;DHT22;2877;48.238;11.160;2024-01-16T03:18:58;-5.30;99.90
5705;DHT22;2877;48.238;11.160;2024-01-16T03:21:23;-5.30;99.90
5705;DHT22;2877;48.238;11.160;2024-01-16T03:23:49;-5.30;99.90
5705;DHT22;2877;48.238;11.160;2024-01-16T03:26:15;-5.30;99.90
5705;DHT22;2877;48.238;11.160;2024-01-16T03:28:41;-5.30;99.90
5705;DHT22;2877;48.238;11.160;2024-01-16T03:31:07;-5.30;99.90
5705;DHT22;2877;48.238;11.160;2024-01-16T03:33:33;-5.30;99.90
5705;DHT22;2877;48.238;11.160;2024-01-16T03:36:01;-5.30;99.90
5705;DHT22;2877;48.238;11.160;2024-01-16T03:38:26;-5.30;99.90
5705;DHT22;2877;48.238;11.160;2024-01-16T03:40:52;-5.30;99.90
5705;DHT22;2877;48.238;11.160;2024-01-16T03:43:18;-5.30;99.90
5705;DHT22;2877;48.238;11.160;2024-01-16T03:45:44;-5.40;99.90
5705;DHT22;2877;48.238;11.160;2024-01-16T03:48:09;-5.40;99.90
5705;DHT22;2877;48.238;11.160;2024-01-16T03:50:35;-5.50;99.90
5705;DHT22;2877;48.238;11.160;2024-01-16T03:53:02;-5.40;99.90
5705;DHT22;2877;48.238;11.160;2024-01-16T03:55:29;-5.40;99.90
5705;DHT22;2877;48.238;11.160;2024-01-16T03:57:56;-5.40;99.90
5705;DHT22;2877;48.238;11.160;2024-01-16T04:00:21;-5.30;99.90
5705;DHT22;2877;48.238;11.160;2024-01-16T04:02:47;-5.30;99.90
5705;DHT22;2877;48.238;11.160;2024-01-16T04:05:13;-5.30;99.90
5705;DHT22;2877;48.238;11.160;2024-01-16T04:07:38;-5.40;99.90
5705;DHT22;2877;48.238;11.160;2024-01-16T04:10:05;-5.30;99.90
5705;DHT22;2877;48.238;11.160;2024-01-16T04:12:31;-5.30;99.90
5705;DHT22;2877;48.238;11.160;2024-01-16T04:14:57;-5.30;99.90
5705;DHT22;2877;48.238;11.160;2024-01-16T04:17:22;-5.30;99.90
5705;DHT22;2877;48.238;11.160;2024-01-16T04:19:48;-5.20;99.90
5705;DHT22;2877;48.238;11.160;2024-01-16T04:22:13;-5.20;99.90
5705;DHT22;2877;48.238;11.160;2024-01-16T04:24:39;-5.10;99.90
5705;DHT22;2877;48.238;11.160;2024-01-16T04:27:04;-5.00;99.90
5705;DHT22;2877;48.238;11.160;2024-01-16T04:29:30;-5.00;99.90
5705;DHT22;2877;48.238;11.160;2024-01-16T04:31:57;-4.90;99.90
5705;DHT22;2877;48.238;11.160;2024-01-16T04:34:22;-4.90;99.90
5705;DHT22;2877;48.238;11.160;2024-01-16T04:36:48;-4.80;99.90
5705;DHT22;2877;48.238;11.160;2024-01-16T04:39:14;-4.80;99.90
5705;DHT22;2877;48.238;11.160;2024-01-16T04:41:39;-4.80;99.90
5705;DHT22;2877;48.238;11.160;2024-01-16T04:44:05;-4.80;99.90
5705;DHT22;2877;48.238;11.160;2024-01-16T04:46:30;-4.80;99.90
5705;DHT22;2877;48.238;11.160;2024-01-16T04:48:56;-4.90;99.90
5705;DHT22;2877;48.238;11.160;2024-01-16T04:51:21;-4.90;99.90
5705;DHT22;2877;48.238;11.160;2024-01-16T04:53:47;-5.00;99.90
5705;DHT22;2877;48.238;11.160;2024-01-16T04:56:12;-5.00;99.90
5705;DHT22;2877;48.238;11.160;2024-01-16T04:58:38;-5.00;99.90
5705;DHT22;2877;48.238;11.160;2024-01-16T05:01:03;-5.10;99.90
5705;DHT22;2877;48.238;11.160;2024-01-16T05:03:29;-5.10;99.90
5705;DHT22;2877;48.238;11.160;2024-01-16T05:05:54;-5.10;99.90
5705;DHT22;2877;48.238;11.160;2024-01-16T05:08:22;-5.10;99.90
5705;DHT22;2877;48.238;11.160;2024-01-16T05:10:48;-5.10;99.90
5705;DHT22;2877;48.238;11.160;2024-01-16T05:13:13;-5.20;99.90
5705;DHT22;2877;48.238;11.160;2024-01-16T05:15:40;-5.30;99.90
5705;DHT22;2877;48.238;11.160;2024-01-16T05:18:06;-5.30;99.90
5705;DHT22;2877;48.238;11.160;2024-01-16T05:20:31;-5.50;99.90
5705;DHT22;2877;48.238;11.160;2024-01-16T05:22:57;-5.60;99.90
5705;DHT22;2877;48.238;11.160;2024-01-16T05:25:22;-5.70;99.90
5705;DHT22;2877;48.238;11.160;2024-01-16T05:27:48;-5.80;99.90
5705;DHT22;2877;48.238;11.160;2024-01-16T05:30:15;-5.80;99.90
5705;DHT22;2877;48.238;11.160;2024-01-16T05:32:40;-5.80;99.90
5705;DHT22;2877;48.238;11.160;2024-01-16T05:35:07;-5.70;99.90
5705;DHT22;2877;48.238;11.160;2024-01-16T05:37:32;-5.60;99.90
5705;DHT22;2877;48.238;11.160;2024-01-16T05:39:58;-5.50;99.90
5705;DHT22;2877;48.238;11.160;2024-01-16T05:42:24;-5.40;99.90
5705;DHT22;2877;48.238;11.160;2024-01-16T05:44:50;-5.40;99.90
5705;DHT22;2877;48.238;11.160;2024-01-16T05:47:15;-5.30;99.90
5705;DHT22;2877;48.238;11.160;2024-01-16T05:49:41;-5.20;99.90
5705;DHT22;2877;48.238;11.160;2024-01-16T05:52:08;-5.20;99.90
5705;DHT22;2877;48.238;11.160;2024-01-16T05:54:33;-5.20;99.90
5705;DHT22;2877;48.238;11.160;2024-01-16T05:56:59;-5.10;99.90
5705;DHT22;2877;48.238;11.160;2024-01-16T05:59:24;-5.10;99.90
5705;DHT22;2877;48.238;11.160;2024-01-16T06:01:50;-5.10;99.90
5705;DHT22;2877;48.238;11.160;2024-01-16T06:04:16;-5.00;99.90
5705;DHT22;2877;48.238;11.160;2024-01-16T06:06:41;-4.90;99.90
5705;DHT22;2877;48.238;11.160;2024-01-16T06:09:13;-4.90;99.90
5705;DHT22;2877;48.238;11.160;2024-01-16T06:11:40;-4.80;99.90
5705;DHT22;2877;48.238;11.160;2024-01-16T06:14:08;-4.80;99.90
5705;DHT22;2877;48.238;11.160;2024-01-16T06:16:34;-4.80;99.90
5705;DHT22;2877;48.238;11.160;2024-01-16T06:19:00;-4.80;99.90
5705;DHT22;2877;48.238;11.160;2024-01-16T06:21:25;-4.80;99.90
5705;DHT22;2877;48.238;11.160;2024-01-16T06:23:52;-4.80;99.90
5705;DHT22;2877;48.238;11.160;2024-01-16T06:26:17;-4.70;99.90
5705;DHT22;2877;48.238;11.160;2024-01-16T06:28:43;-4.70;99.90
5705;DHT22;2877;48.238;11.160;2024-01-16T06:31:11;-4.80;99.90
5705;DHT22;2877;48.238;11.160;2024-01-16T06:33:37;-4.80;99.90
5705;DHT22;2877;48.238;11.160;2024-01-16T06:36:03;-4.80;99.90
5705;DHT22;2877;48.238;11.160;2024-01-16T06:38:32;-4.70;99.90
5705;DHT22;2877;48.238;11.160;2024-01-16T06:40:58;-4.70;99.90
5705;DHT22;2877;48.238;11.160;2024-01-16T06:43:23;-4.80;99.90
5705;DHT22;2877;48.238;11.160;2024-01-16T06:45:49;-4.80;99.90
5705;DHT22;2877;48.238;11.160;2024-01-16T06:48:15;-4.80;99.90
5705;DHT22;2877;48.238;11.160;2024-01-16T06:50:41;-4.70;99.90
5705;DHT22;2877;48.238;11.160;2024-01-16T06:53:07;-4.70;99.90
5705;DHT22;2877;48.238;11.160;2024-01-16T06:55:32;-4.70;99.90
5705;DHT22;2877;48.238;11.160;2024-01-16T06:57:58;-4.60;99.90
5705;DHT22;2877;48.238;11.160;2024-01-16T07:00:23;-4.50;99.90
5705;DHT22;2877;48.238;11.160;2024-01-16T07:02:52;-4.50;99.90
5705;DHT22;2877;48.238;11.160;2024-01-16T07:05:17;-4.50;99.90
5705;DHT22;2877;48.238;11.160;2024-01-16T07:07:43;-4.50;99.90
5705;DHT22;2877;48.238;11.160;2024-01-16T07:10:08;-4.50;99.90
5705;DHT22;2877;48.238;11.160;2024-01-16T07:12:39;-4.50;99.90
5705;DHT22;2877;48.238;11.160;2024-01-16T07:15:04;-4.60;99.90
5705;DHT22;2877;48.238;11.160;2024-01-16T07:17:30;-4.60;99.90
5705;DHT22;2877;48.238;11.160;2024-01-16T07:19:56;-4.70;99.90
5705;DHT22;2877;48.238;11.160;2024-01-16T07:22:22;-4.60;99.90
5705;DHT22;2877;48.238;11.160;2024-01-16T07:24:47;-4.50;99.90
5705;DHT22;2877;48.238;11.160;2024-01-16T07:27:13;-4.50;99.90
5705;DHT22;2877;48.238;11.160;2024-01-16T07:29:39;-4.40;99.90
5705;DHT22;2877;48.238;11.160;2024-01-16T07:32:04;-4.40;99.90
5705;DHT22;2877;48.238;11.160;2024-01-16T07:34:30;-4.40;99.90
5705;DHT22;2877;48.238;11.160;2024-01-16T07:36:55;-4.40;99.90
5705;DHT22;2877;48.238;11.160;2024-01-16T07:39:21;-4.40;99.90
5705;DHT22;2877;48.238;11.160;2024-01-16T07:41:48;-4.30;99.90
5705;DHT22;2877;48.238;11.160;2024-01-16T07:44:13;-4.30;99.90
5705;DHT22;2877;48.238;11.160;2024-01-16T07:46:39;-4.30;99.90
5705;DHT22;2877;48.238;11.160;2024-01-16T07:49:05;-4.20;99.90
5705;DHT22;2877;48.238;11.160;2024-01-16T07:51:31;-4.20;99.90
5705;DHT22;2877;48.238;11.160;2024-01-16T07:54:09;-4.20;99.90
5705;DHT22;2877;48.238;11.160;2024-01-16T07:56:35;-4.20;99.90
5705;DHT22;2877;48.238;11.160;2024-01-16T07:59:01;-4.20;99.90
5705;DHT22;2877;48.238;11.160;2024-01-16T08:01:28;-4.10;99.90
5705;DHT22;2877;48.238;11.160;2024-01-16T08:03:56;-4.00;99.90
5705;DHT22;2877;48.238;11.160;2024-01-16T08:06:22;-3.90;99.90
5705;DHT22;2877;48.238;11.160;2024-01-16T08:08:49;-3.70;99.90
5705;DHT22;2877;48.238;11.160;2024-01-16T08:11:15;-3.50;99.90
5705;DHT22;2877;48.238;11.160;2024-01-16T08:13:40;-3.40;99.90
5705;DHT22;2877;48.238;11.160;2024-01-16T08:16:06;-3.30;99.90
5705;DHT22;2877;48.238;11.160;2024-01-16T08:18:32;-3.20;99.90
5705;DHT22;2877;48.238;11.160;2024-01-16T08:20:58;-3.10;99.90
5705;DHT22;2877;48.238;11.160;2024-01-16T08:23:23;-2.90;99.90
5705;DHT22;2877;48.238;11.160;2024-01-16T08:25:49;-2.80;99.90
5705;DHT22;2877;48.238;11.160;2024-01-16T08:28:20;-2.70;99.90
5705;DHT22;2877;48.238;11.160;2024-01-16T08:30:46;-2.60;99.90
5705;DHT22;2877;48.238;11.160;2024-01-16T08:33:12;-2.40;99.90
5705;DHT22;2877;48.238;11.160;2024-01-16T08:35:38;-2.30;99.90
5705;DHT22;2877;48.238;11.160;2024-01-16T08:38:04;-2.20;99.90
5705;DHT22;2877;48.238;11.160;2024-01-16T08:40:30;-2.10;99.90
5705;DHT22;2877;48.238;11.160;2024-01-16T08:42:55;-1.90;99.90
5705;DHT22;2877;48.238;11.160;2024-01-16T08:45:21;-1.80;99.90
5705;DHT22;2877;48.238;11.160;2024-01-16T08:47:47;-1.70;99.90
5705;DHT22;2877;48.238;11.160;2024-01-16T08:50:13;-1.60;99.90
5705;DHT22;2877;48.238;11.160;2024-01-16T08:52:38;-1.60;99.90
5705;DHT22;2877;48.238;11.160;2024-01-16T08:55:05;-1.60;99.90
5705;DHT22;2877;48.238;11.160;2024-01-16T08:57:31;-1.60;99.90
5705;DHT22;2877;48.238;11.160;2024-01-16T08:59:56;-1.50;99.90
5705;DHT22;2877;48.238;11.160;2024-01-16T09:02:22;-1.50;99.90
5705;DHT22;2877;48.238;11.160;2024-01-16T09:04:49;-1.40;99.90
5705;DHT22;2877;48.238;11.160;2024-01-16T09:07:16;-1.40;99.90
5705;DHT22;2877;48.238;11.160;2024-01-16T09:09:42;-1.30;99.90
5705;DHT22;2877;48.238;11.160;2024-01-16T09:39:34;-0.20;99.90
5705;DHT22;2877;48.238;11.160;2024-01-16T09:42:03;-0.10;99.90
5705;DHT22;2877;48.238;11.160;2024-01-16T09:44:29;0.00;99.90
5705;DHT22;2877;48.238;11.160;2024-01-16T09:46:55;0.10;99.90
5705;DHT22;2877;48.238;11.160;2024-01-16T09:49:22;0.10;99.90
5705;DHT22;2877;48.238;11.160;2024-01-16T09:51:49;0.10;99.90
5705;DHT22;2877;48.238;11.160;2024-01-16T09:54:14;0.10;99.90
5705;DHT22;2877;48.238;11.160;2024-01-16T09:56:43;0.10;99.90
5705;DHT22;2877;48.238;11.160;2024-01-16T09:59:13;0.00;99.90
5705;DHT22;2877;48.238;11.160;2024-01-16T10:01:40;0.00;99.90
5705;DHT22;2877;48.238;11.160;2024-01-16T10:04:06;0.10;99.90
5705;DHT22;2877;48.238;11.160;2024-01-16T10:06:33;0.20;99.90
5705;DHT22;2877;48.238;11.160;2024-01-16T10:08:59;0.30;99.90
5705;DHT22;2877;48.238;11.160;2024-01-16T10:11:25;0.40;99.90
5705;DHT22;2877;48.238;11.160;2024-01-16T10:13:51;0.50;99.90
5705;DHT22;2877;48.238;11.160;2024-01-16T10:16:16;0.60;99.90
5705;DHT22;2877;48.238;11.160;2024-01-16T10:18:42;0.60;99.90
5705;DHT22;2877;48.238;11.160;2024-01-16T10:21:21;0.70;99.90
5705;DHT22;2877;48.238;11.160;2024-01-16T10:23:54;0.80;99.90
5705;DHT22;2877;48.238;11.160;2024-01-16T10:26:21;0.90;99.90
5705;DHT22;2877;48.238;11.160;2024-01-16T10:28:46;0.80;99.90
5705;DHT22;2877;48.238;11.160;2024-01-16T10:31:13;0.70;99.90
5705;DHT22;2877;48.238;11.160;2024-01-16T10:33:41;0.80;99.90
5705;DHT22;2877;48.238;11.160;2024-01-16T10:36:11;0.90;99.90
5705;DHT22;2877;48.238;11.160;2024-01-16T10:38:41;0.90;99.90
5705;DHT22;2877;48.238;11.160;2024-01-16T10:41:16;0.90;99.90
5705;DHT22;2877;48.238;11.160;2024-01-16T10:43:44;1.00;99.90
5705;DHT22;2877;48.238;11.160;2024-01-16T10:46:14;1.00;99.90
5705;DHT22;2877;48.238;11.160;2024-01-16T10:48:43;1.10;99.90
5705;DHT22;2877;48.238;11.160;2024-01-16T10:51:14;1.30;99.90
5705;DHT22;2877;48.238;11.160;2024-01-16T10:53:44;1.40;99.90
5705;DHT22;2877;48.238;11.160;2024-01-16T10:56:12;1.60;99.90
5705;DHT22;2877;48.238;11.160;2024-01-16T10:58:40;1.70;99.90
5705;DHT22;2877;48.238;11.160;2024-01-16T11:01:15;1.70;99.90
5705;DHT22;2877;48.238;11.160;2024-01-16T11:03:49;1.70;99.90
5705;DHT22;2877;48.238;11.160;2024-01-16T11:06:18;1.80;99.90
5705;DHT22;2877;48.238;11.160;2024-01-16T11:08:48;1.90;99.90
5705;DHT22;2877;48.238;11.160;2024-01-16T11:11:14;2.00;99.90
5705;DHT22;2877;48.238;11.160;2024-01-16T11:13:41;1.70;99.90
5705;DHT22;2877;48.238;11.160;2024-01-16T11:16:10;1.70;99.90
5705;DHT22;2877;48.238;11.160;2024-01-16T11:18:37;1.70;99.90
5705;DHT22;2877;48.238;11.160;2024-01-16T11:21:13;1.60;99.90
5705;DHT22;2877;48.238;11.160;2024-01-16T11:23:39;1.60;99.90
5705;DHT22;2877;48.238;11.160;2024-01-16T11:26:28;1.70;99.90
5705;DHT22;2877;48.238;11.160;2024-01-16T11:28:54;1.70;99.90
5705;DHT22;2877;48.238;11.160;2024-01-16T11:31:32;1.70;99.90
5705;DHT22;2877;48.238;11.160;2024-01-16T11:33:58;1.50;99.90
5705;DHT22;2877;48.238;11.160;2024-01-16T11:36:49;1.50;99.90
5705;DHT22;2877;48.238;11.160;2024-01-16T11:39:21;1.60;99.90
5705;DHT22;2877;48.238;11.160;2024-01-16T11:41:51;1.70;99.90
5705;DHT22;2877;48.238;11.160;2024-01-16T11:44:40;1.70;99.90
5705;DHT22;2877;48.238;11.160;2024-01-16T11:47:06;1.70;99.90
5705;DHT22;2877;48.238;11.160;2024-01-16T11:49:33;1.60;99.90
5705;DHT22;2877;48.238;11.160;2024-01-16T11:51:59;1.60;99.90
5705;DHT22;2877;48.238;11.160;2024-01-16T11:54:25;1.60;99.90
5705;DHT22;2877;48.238;11.160;2024-01-16T11:59:47;1.70;99.90
5705;DHT22;2877;48.238;11.160;2024-01-16T12:02:29;2.00;99.90
5705;DHT22;2877;48.238;11.160;2024-01-16T12:04:55;2.30;99.90
5705;DHT22;2877;48.238;11.160;2024-01-16T12:07:22;2.20;99.90
5705;DHT22;2877;48.238;11.160;2024-01-16T12:09:48;2.10;99.90
5705;DHT22;2877;48.238;11.160;2024-01-16T12:12:15;2.10;99.90
5705;DHT22;2877;48.238;11.160;2024-01-16T12:14:40;2.10;99.90
5705;DHT22;2877;48.238;11.160;2024-01-16T12:17:13;2.20;99.90
5705;DHT22;2877;48.238;11.160;2024-01-16T12:19:39;2.30;99.90
5705;DHT22;2877;48.238;11.160;2024-01-16T12:22:09;2.50;99.90
5705;DHT22;2877;48.238;11.160;2024-01-16T12:24:38;2.40;99.90
5705;DHT22;2877;48.238;11.160;2024-01-16T12:27:04;2.40;99.90
5705;DHT22;2877;48.238;11.160;2024-01-16T12:29:30;2.50;99.90
5705;DHT22;2877;48.238;11.160;2024-01-16T12:32:09;2.60;99.90
5705;DHT22;2877;48.238;11.160;2024-01-16T12:34:43;2.70;99.90
5705;DHT22;2877;48.238;11.160;2024-01-16T12:37:10;2.80;99.90
5705;DHT22;2877;48.238;11.160;2024-01-16T12:39:36;2.90;99.90
5705;DHT22;2877;48.238;11.160;2024-01-16T12:42:02;2.90;99.90
5705;DHT22;2877;48.238;11.160;2024-01-16T12:44:28;2.70;99.90
5705;DHT22;2877;48.238;11.160;2024-01-16T12:46:55;2.60;99.90
5705;DHT22;2877;48.238;11.160;2024-01-16T12:49:24;2.40;99.90
5705;DHT22;2877;48.238;11.160;2024-01-16T12:51:50;2.10;99.90
5705;DHT22;2877;48.238;11.160;2024-01-16T12:54:17;2.00;99.90
5705;DHT22;2877;48.238;11.160;2024-01-16T12:56:44;2.00;99.90
5705;DHT22;2877;48.238;11.160;2024-01-16T12:59:11;1.90;99.90
5705;DHT22;2877;48.238;11.160;2024-01-16T13:01:43;1.70;99.90
5705;DHT22;2877;48.238;11.160;2024-01-16T13:04:12;1.70;99.90
5705;DHT22;2877;48.238;11.160;2024-01-16T13:06:39;1.80;99.90
5705;DHT22;2877;48.238;11.160;2024-01-16T13:09:10;1.90;99.90
5705;DHT22;2877;48.238;11.160;2024-01-16T13:11:54;1.90;99.90
5705;DHT22;2877;48.238;11.160;2024-01-16T13:14:24;2.00;99.90
5705;DHT22;2877;48.238;11.160;2024-01-16T13:16:51;2.10;99.90
5705;DHT22;2877;48.238;11.160;2024-01-16T13:19:20;2.00;99.90
5705;DHT22;2877;48.238;11.160;2024-01-16T13:21:46;1.80;99.90
5705;DHT22;2877;48.238;11.160;2024-01-16T13:24:12;1.80;99.90
5705;DHT22;2877;48.238;11.160;2024-01-16T13:26:42;1.70;99.90
5705;DHT22;2877;48.238;11.160;2024-01-16T13:29:08;1.60;99.90
5705;DHT22;2877;48.238;11.160;2024-01-16T13:31:34;1.60;99.90
5705;DHT22;2877;48.238;11.160;2024-01-16T13:34:00;1.60;99.90
5705;DHT22;2877;48.238;11.160;2024-01-16T13:36:25;1.70;99.90
5705;DHT22;2877;48.238;11.160;2024-01-16T13:38:51;1.70;99.90
5705;DHT22;2877;48.238;11.160;2024-01-16T13:41:17;1.80;99.90
5705;DHT22;2877;48.238;11.160;2024-01-16T13:43:42;1.70;99.90
5705;DHT22;2877;48.238;11.160;2024-01-16T13:46:08;1.60;99.90
5705;DHT22;2877;48.238;11.160;2024-01-16T13:48:35;1.50;99.90
5705;DHT22;2877;48.238;11.160;2024-01-16T13:51:01;1.40;99.90
5705;DHT22;2877;48.238;11.160;2024-01-16T13:53:26;1.20;99.90
5705;DHT22;2877;48.238;11.160;2024-01-16T13:55:52;1.30;99.90
5705;DHT22;2877;48.238;11.160;2024-01-16T13:58:18;1.30;99.90
5705;DHT22;2877;48.238;11.160;2024-01-16T14:00:44;1.40;99.90
5705;DHT22;2877;48.238;11.160;2024-01-16T14:03:09;1.40;99.90
5705;DHT22;2877;48.238;11.160;2024-01-16T14:05:35;1.40;99.90
5705;DHT22;2877;48.238;11.160;2024-01-16T14:08:01;1.30;99.90
5705;DHT22;2877;48.238;11.160;2024-01-16T14:10:27;1.30;99.90
5705;DHT22;2877;48.238;11.160;2024-01-16T14:12:52;1.30;99.90
5705;DHT22;2877;48.238;11.160;2024-01-16T14:15:20;1.10;99.90
5705;DHT22;2877;48.238;11.160;2024-01-16T14:17:48;1.10;99.90
5705;DHT22;2877;48.238;11.160;2024-01-16T14:20:15;1.10;99.90
5705;DHT22;2877;48.238;11.160;2024-01-16T14:22:41;1.10;99.90
5705;DHT22;2877;48.238;11.160;2024-01-16T14:25:11;1.10;99.90
5705;DHT22;2877;48.238;11.160;2024-01-16T14:27:42;1.20;99.90
5705;DHT22;2877;48.238;11.160;2024-01-16T14:30:12;1.10;99.90
5705;DHT22;2877;48.238;11.160;2024-01-16T14:32:43;1.10;99.90
5705;DHT22;2877;48.238;11.160;2024-01-16T14:35:10;1.00;99.90
5705;DHT22;2877;48.238;11.160;2024-01-16T14:37:37;0.90;99.90
5705;DHT22;2877;48.238;11.160;2024-01-16T14:40:04;0.70;99.90
5705;DHT22;2877;48.238;11.160;2024-01-16T14:42:54;0.60;99.90
5705;DHT22;2877;48.238;11.160;2024-01-16T14:45:22;0.40;99.90
5705;DHT22;2877;48.238;11.160;2024-01-16T14:47:48;0.20;99.90
5705;DHT22;2877;48.238;11.160;2024-01-16T14:50:14;0.10;99.90
5705;DHT22;2877;48.238;11.160;2024-01-16T14:52:42;0.00;99.90
5705;DHT22;2877;48.238;11.160;2024-01-16T14:55:07;-0.10;99.90
5705;DHT22;2877;48.238;11.160;2024-01-16T14:57:33;-0.10;99.90
5705;DHT22;2877;48.238;11.160;2024-01-16T15:00:08;-0.30;99.90
5705;DHT22;2877;48.238;11.160;2024-01-16T15:02:51;-0.30;99.90
5705;DHT22;2877;48.238;11.160;2024-01-16T15:05:18;-0.40;99.90
5705;DHT22;2877;48.238;11.160;2024-01-16T15:07:45;-0.50;99.90
5705;DHT22;2877;48.238;11.160;2024-01-16T15:10:11;-0.50;99.90
5705;DHT22;2877;48.238;11.160;2024-01-16T15:12:40;-0.50;99.90
5705;DHT22;2877;48.238;11.160;2024-01-16T15:15:07;-0.50;99.90
5705;DHT22;2877;48.238;11.160;2024-01-16T15:17:34;-0.50;99.90
5705;DHT22;2877;48.238;11.160;2024-01-16T15:19:59;-0.50;99.90
5705;DHT22;2877;48.238;11.160;2024-01-16T15:22:25;-0.60;99.90
5705;DHT22;2877;48.238;11.160;2024-01-16T15:24:50;-0.60;99.90
5705;DHT22;2877;48.238;11.160;2024-01-16T15:27:16;-0.70;99.90
5705;DHT22;2877;48.238;11.160;2024-01-16T15:29:41;-0.70;99.90
5705;DHT22;2877;48.238;11.160;2024-01-16T15:32:07;-0.70;99.90
5705;DHT22;2877;48.238;11.160;2024-01-16T15:34:33;-0.70;99.90
5705;DHT22;2877;48.238;11.160;2024-01-16T15:36:59;-0.80;99.90
5705;DHT22;2877;48.238;11.160;2024-01-16T15:39:24;-0.90;99.90
5705;DHT22;2877;48.238;11.160;2024-01-16T15:41:50;-1.00;99.90
5705;DHT22;2877;48.238;11.160;2024-01-16T15:44:15;-1.10;99.90
5705;DHT22;2877;48.238;11.160;2024-01-16T15:47:01;-1.20;99.90
5705;DHT22;2877;48.238;11.160;2024-01-16T15:49:28;-1.40;99.90
5705;DHT22;2877;48.238;11.160;2024-01-16T15:51:54;-1.50;99.90
5705;DHT22;2877;48.238;11.160;2024-01-16T15:54:21;-1.60;99.90
5705;DHT22;2877;48.238;11.160;2024-01-16T15:56:46;-1.70;99.90
5705;DHT22;2877;48.238;11.160;2024-01-16T15:59:13;-1.80;99.90
5705;DHT22;2877;48.238;11.160;2024-01-16T16:01:38;-1.90;99.90
5705;DHT22;2877;48.238;11.160;2024-01-16T16:04:04;-2.00;99.90
5705;DHT22;2877;48.238;11.160;2024-01-16T16:06:37;-2.20;99.90
5705;DHT22;2877;48.238;11.160;2024-01-16T16:09:03;-2.40;99.90
5705;DHT22;2877;48.238;11.160;2024-01-16T16:11:37;-2.60;99.90
5705;DHT22;2877;48.238;11.160;2024-01-16T16:14:04;-2.80;99.90
5705;DHT22;2877;48.238;11.160;2024-01-16T16:16:31;-2.90;99.90
5705;DHT22;2877;48.238;11.160;2024-01-16T16:18:58;-3.00;99.90